createdAt,value
2022-08-14T00:02:21.072Z,98190.19
2022-08-14T00:04:47.293Z,98192.59
2022-08-14T00:07:14.192Z,98195.63
2022-08-14T00:09:55.655Z,98195.59
2022-08-14T00:12:33.776Z,98184.75
2022-08-14T00:15:03.984Z,98179.56
2022-08-14T00:17:31.608Z,98186.34
2022-08-14T00:20:13.809Z,98179.81
2022-08-14T00:22:56.464Z,98174.38
2022-08-14T00:25:23.481Z,98173.28
2022-08-14T00:27:54.137Z,98173.00
2022-08-14T00:30:20.960Z,98170.56
2022-08-14T00:32:55.953Z,98164.59
2022-08-14T00:35:22.812Z,98159.19
2022-08-14T00:38:09.488Z,98161.56
2022-08-14T00:40:36.066Z,98161.56
2022-08-14T00:43:02.205Z,98156.69
2022-08-14T00:45:31.143Z,98156.38
2022-08-14T00:47:57.410Z,98152.09
2022-08-14T00:50:26.072Z,98145.88
2022-08-14T00:52:54.278Z,98142.91
2022-08-14T00:55:20.414Z,98138.97
2022-08-14T00:57:46.558Z,98147.66
2022-08-14T01:00:34.069Z,98134.69
2022-08-14T01:03:03.306Z,98136.81
2022-08-14T01:05:41.638Z,98131.91
2022-08-14T01:08:20.605Z,98138.66
2022-08-14T01:11:02.046Z,98130.41
2022-08-14T01:13:42.319Z,98128.91
2022-08-14T01:16:09.474Z,98130.78
2022-08-14T01:18:40.094Z,98112.06
2022-08-14T01:21:06.301Z,98119.88
2022-08-14T01:23:41.753Z,98112.59
2022-08-14T01:26:13.260Z,98108.50
2022-08-14T01:28:56.730Z,98100.88
2022-08-14T01:31:23.929Z,98099.81
2022-08-14T01:34:00.450Z,98099.00
2022-08-14T01:36:36.203Z,98084.88
2022-08-14T01:39:09.502Z,98087.06
2022-08-14T01:41:35.898Z,98082.47
2022-08-14T01:44:02.166Z,98082.47
2022-08-14T01:46:33.197Z,98082.50
2022-08-14T01:49:02.725Z,98089.00
2022-08-14T01:51:28.865Z,98080.84
2022-08-14T01:53:56.509Z,98083.56
2022-08-14T01:56:23.651Z,98077.06
2022-08-14T01:58:57.994Z,98084.06
2022-08-14T02:01:26.585Z,98075.41
2022-08-14T02:03:53.469Z,98071.88
2022-08-14T02:06:33.022Z,98064.25
2022-08-14T02:08:59.943Z,98061.31
2022-08-14T02:11:26.070Z,98059.16
2022-08-14T02:13:52.209Z,98054.22
2022-08-14T02:16:22.343Z,98043.13
2022-08-14T02:18:49.225Z,98039.03
2022-08-14T02:21:15.527Z,98039.03
2022-08-14T02:23:45.564Z,98033.66
2022-08-14T02:26:18.099Z,98028.00
2022-08-14T02:28:57.267Z,98023.69
2022-08-14T02:31:28.464Z,98028.53
2022-08-14T02:34:02.651Z,98030.91
2022-08-14T02:37:04.486Z,98021.78
2022-08-14T02:39:26.987Z,98016.03
2022-08-14T02:41:58.162Z,98010.16
2022-08-14T02:44:29.806Z,98015.22
2022-08-14T02:47:01.294Z,98007.69
2022-08-14T02:49:31.520Z,98012.53
2022-08-14T02:52:00.254Z,98016.03
2022-08-14T02:54:26.390Z,98014.16
2022-08-14T02:57:16.625Z,98016.59
2022-08-14T02:59:39.100Z,98009.78
2022-08-14T03:02:05.289Z,98015.72
2022-08-14T03:04:32.609Z,98011.97
2022-08-14T03:07:06.333Z,98009.47
2022-08-14T03:10:24.395Z,98009.44
2022-08-14T03:12:30.791Z,98002.69
2022-08-14T03:14:58.672Z,97995.66
2022-08-14T03:17:24.808Z,97995.59
2022-08-14T03:19:51.462Z,97994.25
2022-08-14T03:22:17.987Z,97987.97
2022-08-14T03:24:44.218Z,97987.94
2022-08-14T03:27:10.785Z,97993.03
2022-08-14T03:29:36.917Z,97997.63
2022-08-14T03:32:06.863Z,97994.97
2022-08-14T03:34:47.887Z,97996.53
2022-08-14T03:37:52.216Z,97989.53
2022-08-14T03:40:00.991Z,97987.84
2022-08-14T03:42:35.818Z,97990.53
2022-08-14T03:45:18.683Z,97985.38
2022-08-14T03:47:58.321Z,97988.34
2022-08-14T03:50:30.810Z,97989.88
2022-08-14T03:53:00.457Z,97981.75
2022-08-14T03:55:26.965Z,97978.38
2022-08-14T03:57:53.658Z,97978.16
2022-08-14T04:00:44.314Z,97976.84
2022-08-14T04:03:06.415Z,97980.03
2022-08-14T04:05:42.833Z,97986.81
2022-08-14T04:08:23.089Z,97984.69
2022-08-14T04:10:56.526Z,97974.66
2022-08-14T04:13:23.771Z,97977.63
2022-08-14T04:15:56.293Z,97982.44
2022-08-14T04:18:27.868Z,97990.78
2022-08-14T04:20:55.791Z,97982.66
2022-08-14T04:23:23.690Z,97973.19
2022-08-14T04:25:55.436Z,97982.66
2022-08-14T04:29:06.835Z,97987.47
2022-08-14T04:31:07.712Z,97988.84
2022-08-14T04:33:34.468Z,97993.94
2022-08-14T04:36:00.607Z,97992.28
2022-08-14T04:38:37.280Z,97988.94
2022-08-14T04:41:04.610Z,97992.69
2022-08-14T04:43:39.298Z,97993.19
2022-08-14T04:46:06.849Z,97987.56
2022-08-14T04:48:43.119Z,97987.38
2022-08-14T04:51:17.107Z,97993.88
2022-08-14T04:53:43.729Z,97991.19
2022-08-14T04:56:10.769Z,97985.81
2022-08-14T04:58:56.153Z,97981.34
2022-08-14T05:01:22.363Z,97982.41
2022-08-14T05:03:48.632Z,97982.41
2022-08-14T05:06:35.040Z,97979.28
2022-08-14T05:09:02.946Z,97973.69
2022-08-14T05:11:29.639Z,97967.28
2022-08-14T05:14:34.127Z,97967.88
2022-08-14T05:16:41.936Z,97967.66
2022-08-14T05:19:18.183Z,97968.50
2022-08-14T05:22:00.149Z,97961.97
2022-08-14T05:24:37.465Z,97955.34
2022-08-14T05:27:03.662Z,97962.38
2022-08-14T05:29:29.830Z,97957.00
2022-08-14T05:31:58.043Z,97961.25
2022-08-14T05:34:28.911Z,97955.06
2022-08-14T05:37:02.525Z,97961.78
2022-08-14T05:39:29.562Z,97960.50
2022-08-14T05:41:55.762Z,97954.63
2022-08-14T05:44:21.888Z,97960.00
2022-08-14T05:46:48.059Z,97960.06
2022-08-14T05:49:14.212Z,97960.66
2022-08-14T05:51:40.590Z,97967.44
2022-08-14T05:54:13.076Z,97956.66
2022-08-14T05:56:46.451Z,97958.38
2022-08-14T05:59:12.606Z,97960.56
2022-08-14T06:01:41.013Z,97967.56
2022-08-14T06:04:07.192Z,97960.59
2022-08-14T06:06:38.162Z,97963.22
2022-08-14T06:09:04.815Z,97962.19
2022-08-14T06:11:31.411Z,97958.91
2022-08-14T06:13:58.819Z,97966.16
2022-08-14T06:16:24.957Z,97964.84
2022-08-14T06:18:52.986Z,97966.53
2022-08-14T06:21:19.539Z,97960.28
2022-08-14T06:23:49.143Z,97963.56
2022-08-14T06:26:15.417Z,97968.97
2022-08-14T06:28:45.623Z,97972.09
2022-08-14T06:31:11.891Z,97966.22
2022-08-14T06:35:01.499Z,97978.66
2022-08-14T06:36:24.529Z,97976.00
2022-08-14T06:38:50.693Z,97979.50
2022-08-14T06:41:19.144Z,97977.94
2022-08-14T06:43:47.216Z,97981.50
2022-08-14T06:46:23.236Z,97976.34
2022-08-14T06:48:58.859Z,97978.56
2022-08-14T06:51:24.981Z,97972.94
2022-08-14T06:54:05.233Z,97965.16
2022-08-14T06:56:34.562Z,97956.28
2022-08-14T06:59:01.347Z,97953.03
2022-08-14T07:01:31.405Z,97956.31
2022-08-14T07:03:57.599Z,97958.00
2022-08-14T07:06:46.515Z,97950.97
2022-08-14T07:09:09.923Z,97947.78
2022-08-14T07:11:36.904Z,97953.50
2022-08-14T07:14:03.034Z,97957.00
2022-08-14T07:16:29.886Z,97961.34
2022-08-14T07:18:56.423Z,97949.44
2022-08-14T07:21:22.557Z,97959.19
2022-08-14T07:23:48.726Z,97968.94
2022-08-14T07:26:17.769Z,97962.47
2022-08-14T07:28:44.117Z,97960.31
2022-08-14T07:31:10.303Z,97958.72
2022-08-14T07:33:36.487Z,97964.13
2022-08-14T07:36:03.287Z,97951.69
2022-08-14T07:38:37.870Z,97959.81
2022-08-14T07:41:04.316Z,97959.31
2022-08-14T07:43:38.258Z,97959.28
2022-08-14T07:46:04.829Z,97955.22
2022-08-14T07:48:31.051Z,97954.97
2022-08-14T07:51:02.082Z,97943.84
2022-08-14T07:53:29.936Z,97946.59
2022-08-14T07:56:21.898Z,97948.19
2022-08-14T07:58:51.778Z,97942.50
2022-08-14T08:01:19.219Z,97939.25
2022-08-14T08:03:49.507Z,97943.06
2022-08-14T08:06:17.342Z,97935.97
2022-08-14T08:08:43.965Z,97937.03
2022-08-14T08:11:24.828Z,97925.38
2022-08-14T08:13:54.611Z,97923.44
2022-08-14T08:16:20.824Z,97918.84
2022-08-14T08:18:50.251Z,97911.53
2022-08-14T08:21:16.394Z,97915.84
2022-08-14T08:23:51.355Z,97909.06
2022-08-14T08:26:17.750Z,97906.88
2022-08-14T08:28:44.096Z,97910.13
2022-08-14T08:31:10.609Z,97911.13
2022-08-14T08:33:37.986Z,97912.22
2022-08-14T08:36:04.133Z,97909.50
2022-08-14T08:39:17.002Z,97900.75
2022-08-14T08:41:16.825Z,97902.31
2022-08-14T08:43:46.030Z,97892.78
2022-08-14T08:46:21.191Z,97893.66
2022-08-14T08:48:53.942Z,97890.91
2022-08-14T08:51:19.471Z,97893.59
2022-08-14T08:53:45.827Z,97887.59
2022-08-14T08:56:11.986Z,97891.31
2022-08-14T08:58:56.594Z,97889.94
2022-08-14T09:01:23.146Z,97890.72
2022-08-14T09:03:49.306Z,97885.84
2022-08-14T09:07:01.311Z,97896.47
2022-08-14T09:09:01.607Z,97887.75
2022-08-14T09:11:27.741Z,97887.66
2022-08-14T09:13:54.023Z,97890.06
2022-08-14T09:16:20.181Z,97884.53
2022-08-14T09:18:46.310Z,97887.94
2022-08-14T09:21:13.701Z,97887.81
2022-08-14T09:24:26.348Z,97884.69
2022-08-14T09:26:28.992Z,97886.69
2022-08-14T09:28:58.447Z,97885.63
2022-08-14T09:31:24.586Z,97879.34
2022-08-14T09:33:56.438Z,97880.94
2022-08-14T09:36:23.649Z,97881.13
2022-08-14T09:38:49.824Z,97883.44
2022-08-14T09:41:15.956Z,97883.19
2022-08-14T09:43:43.782Z,97881.78
2022-08-14T09:46:10.296Z,97882.63
2022-08-14T09:48:36.526Z,97873.28
2022-08-14T09:54:12.866Z,97865.19
2022-08-14T09:56:14.397Z,97861.69
2022-08-14T09:58:56.941Z,97856.44
2022-08-14T10:01:24.749Z,97855.13
2022-08-14T10:03:53.700Z,97844.06
2022-08-14T10:06:19.979Z,97835.31
2022-08-14T10:08:50.592Z,97838.47
2022-08-14T10:11:17.651Z,97830.00
2022-08-14T10:13:52.767Z,97829.63
2022-08-14T10:16:21.972Z,97830.09
2022-08-14T10:18:53.675Z,97826.88
2022-08-14T10:21:19.816Z,97823.06
2022-08-14T10:23:48.766Z,97814.75
2022-08-14T10:26:22.782Z,97806.31
2022-08-14T10:29:18.765Z,97811.50
2022-08-14T10:31:44.611Z,97813.47
2022-08-14T10:34:13.445Z,97810.06
2022-08-14T10:36:40.941Z,97804.63
2022-08-14T10:39:12.222Z,97797.16
2022-08-14T10:41:48.552Z,97795.84
2022-08-14T10:44:21.399Z,97796.66
2022-08-14T10:47:39.772Z,97788.97
2022-08-14T10:49:34.176Z,97793.34
2022-08-14T10:52:00.358Z,97791.13
2022-08-14T10:54:37.266Z,97791.44
2022-08-14T10:57:07.452Z,97786.63
2022-08-14T10:59:36.130Z,97779.31
2022-08-14T11:02:06.390Z,97777.66
2022-08-14T11:04:33.282Z,97777.66
2022-08-14T11:06:59.456Z,97769.25
2022-08-14T11:09:26.056Z,97777.75
2022-08-14T11:11:55.155Z,97780.56
2022-08-14T11:14:22.637Z,97766.69
2022-08-14T11:16:49.193Z,97759.34
2022-08-14T11:19:19.937Z,97752.56
2022-08-14T11:21:50.362Z,97766.84
2022-08-14T11:24:50.663Z,97766.00
2022-08-14T11:27:08.605Z,97763.88
2022-08-14T11:29:35.987Z,97759.13
2022-08-14T11:32:02.461Z,97757.03
2022-08-14T11:34:32.050Z,97753.88
2022-08-14T11:37:19.049Z,97761.28
2022-08-14T11:39:45.813Z,97754.06
2022-08-14T11:42:57.021Z,97748.13
2022-08-14T11:45:00.190Z,97741.59
2022-08-14T11:47:26.693Z,97740.75
2022-08-14T11:50:01.830Z,97739.53
2022-08-14T11:52:28.157Z,97728.56
2022-08-14T11:54:54.281Z,97734.16
2022-08-14T11:57:22.806Z,97744.63
2022-08-14T11:59:49.144Z,97733.91
2022-08-14T12:03:00.906Z,97733.34
2022-08-14T12:05:09.637Z,97737.38
2022-08-14T12:07:36.027Z,97738.72
2022-08-14T12:10:26.232Z,97740.53
2022-08-14T12:12:48.614Z,97735.16
2022-08-14T12:15:17.822Z,97733.59
2022-08-14T12:17:47.703Z,97730.69
2022-08-14T12:20:15.949Z,97742.38
2022-08-14T12:22:58.592Z,97731.94
2022-08-14T12:25:26.370Z,97731.13
2022-08-14T12:27:54.389Z,97734.84
2022-08-14T12:30:24.915Z,97735.00
2022-08-14T12:32:53.008Z,97727.50
2022-08-14T12:35:19.142Z,97727.44
2022-08-14T12:37:47.177Z,97722.31
2022-08-14T12:40:13.484Z,97719.94
2022-08-14T12:42:47.336Z,97718.88
2022-08-14T12:45:18.775Z,97708.59
2022-08-14T12:47:46.084Z,97710.19
2022-08-14T12:50:17.595Z,97700.66
2022-08-14T12:53:01.910Z,97687.63
2022-08-14T12:56:17.599Z,97686.28
2022-08-14T12:58:29.323Z,97678.25
2022-08-14T13:01:17.093Z,97673.44
2022-08-14T13:03:46.598Z,97663.00
2022-08-14T13:06:12.755Z,97659.69
2022-08-14T13:08:43.325Z,97653.72
2022-08-14T13:11:18.798Z,97653.22
2022-08-14T13:13:46.501Z,97645.69
2022-08-14T13:16:21.045Z,97639.88
2022-08-14T13:19:01.207Z,97636.97
2022-08-14T13:21:27.523Z,97632.44
2022-08-14T13:23:55.628Z,97632.25
2022-08-14T13:26:24.256Z,97623.41
2022-08-14T13:29:02.311Z,97620.22
2022-08-14T13:31:30.153Z,97614.69
2022-08-14T13:33:56.529Z,97615.13
2022-08-14T13:36:51.471Z,97611.84
2022-08-14T13:39:10.441Z,97608.19
2022-08-14T13:41:39.085Z,97601.91
2022-08-14T13:44:07.861Z,97590.28
2022-08-14T13:46:39.920Z,97599.13
2022-08-14T13:49:09.891Z,97591.78
2022-08-14T13:51:36.016Z,97582.75
2022-08-14T13:54:10.262Z,97581.31
2022-08-14T13:56:37.312Z,97572.31
2022-08-14T13:59:03.464Z,97561.53
2022-08-14T14:01:32.961Z,97573.19
2022-08-14T14:04:01.149Z,97556.13
2022-08-14T14:06:28.624Z,97553.88
2022-08-14T14:08:54.873Z,97561.41
2022-08-14T14:11:25.168Z,97557.63
2022-08-14T14:13:56.374Z,97554.97
2022-08-14T14:16:30.209Z,97546.66
2022-08-14T14:18:57.507Z,97551.75
2022-08-14T14:21:23.690Z,97542.13
2022-08-14T14:23:49.813Z,97551.31
2022-08-14T14:26:20.017Z,97549.31
2022-08-14T14:28:49.146Z,97545.84
2022-08-14T14:31:16.430Z,97539.53
2022-08-14T14:33:46.978Z,97537.97
2022-08-14T14:36:14.276Z,97540.31
2022-08-14T14:38:40.414Z,97530.88
2022-08-14T14:41:06.624Z,97533.94
2022-08-14T14:43:32.792Z,97536.81
2022-08-14T14:45:59.044Z,97533.88
2022-08-14T14:48:28.221Z,97534.50
2022-08-14T14:50:54.739Z,97534.72
2022-08-14T14:53:20.860Z,97528.94
2022-08-14T14:56:49.867Z,97531.66
2022-08-14T14:58:33.126Z,97538.00
2022-08-14T15:01:00.362Z,97538.78
2022-08-14T15:03:26.527Z,97530.63
2022-08-14T15:05:53.665Z,97529.25
2022-08-14T15:08:26.385Z,97528.81
2022-08-14T15:11:06.683Z,97530.13
2022-08-14T15:13:43.366Z,97539.47
2022-08-14T15:16:19.546Z,97532.28
2022-08-14T15:18:49.118Z,97530.44
2022-08-14T15:21:15.504Z,97524.28
2022-08-14T15:23:44.077Z,97523.59
2022-08-14T15:26:11.111Z,97511.56
2022-08-14T15:28:39.538Z,97522.53
2022-08-14T15:31:05.682Z,97519.09
2022-08-14T15:33:35.800Z,97516.16
2022-08-14T15:36:02.074Z,97511.00
2022-08-14T15:38:29.191Z,97501.78
2022-08-14T15:40:56.358Z,97513.25
2022-08-14T15:43:22.620Z,97515.56
2022-08-14T15:45:48.753Z,97508.38
2022-08-14T15:48:22.139Z,97509.81
2022-08-14T15:50:49.159Z,97504.84
2022-08-14T15:53:16.960Z,97502.09
2022-08-14T15:55:43.293Z,97508.31
2022-08-14T15:58:14.385Z,97499.84
2022-08-14T16:00:44.409Z,97501.72
2022-08-14T16:03:16.669Z,97503.97
2022-08-14T16:05:43.075Z,97498.56
2022-08-14T16:08:27.380Z,97501.47
2022-08-14T16:10:55.704Z,97492.25
2022-08-14T16:13:41.128Z,97488.66
2022-08-14T16:16:47.586Z,97486.38
2022-08-14T16:18:54.097Z,97479.81
2022-08-14T16:21:20.464Z,97482.72
2022-08-14T16:23:48.048Z,97480.97
2022-08-14T16:26:19.846Z,97483.13
2022-08-14T16:28:46.002Z,97474.53
2022-08-14T16:31:12.125Z,97476.69
2022-08-14T16:33:58.935Z,97471.41
2022-08-14T16:36:30.566Z,97472.53
2022-08-14T16:38:57.308Z,97473.06
2022-08-14T16:41:26.264Z,97474.09
2022-08-14T16:43:52.435Z,97467.31
2022-08-14T16:46:22.540Z,97472.84
2022-08-14T16:48:57.177Z,97460.19
2022-08-14T16:51:24.381Z,97464.88
2022-08-14T16:53:51.217Z,97456.94
2022-08-14T16:56:23.701Z,97454.09
2022-08-14T16:58:51.634Z,97449.97
2022-08-14T17:01:24.968Z,97457.09
2022-08-14T17:03:53.452Z,97446.84
2022-08-14T17:06:30.650Z,97448.66
2022-08-14T17:08:59.891Z,97439.31
2022-08-14T17:11:27.864Z,97436.69
2022-08-14T17:14:00.479Z,97438.06
2022-08-14T17:16:27.411Z,97440.41
2022-08-14T17:18:55.482Z,97439.47
2022-08-14T17:21:31.226Z,97451.63
2022-08-14T17:23:58.761Z,97442.47
2022-08-14T17:26:27.268Z,97447.50
2022-08-14T17:28:56.577Z,97437.94
2022-08-14T17:31:22.740Z,97443.09
2022-08-14T17:33:51.745Z,97435.34
2022-08-14T17:36:21.004Z,97436.59
2022-08-14T17:38:59.891Z,97437.06
2022-08-14T17:41:27.257Z,97429.16
2022-08-14T17:46:30.302Z,97437.91
2022-08-14T17:49:14.063Z,97435.59
2022-08-14T17:51:53.498Z,97433.91
2022-08-14T17:54:22.746Z,97441.94
2022-08-14T17:57:00.802Z,97427.94
2022-08-14T17:59:26.924Z,97430.50
2022-08-14T18:01:53.058Z,97443.97
2022-08-14T18:04:28.517Z,97433.59
2022-08-14T18:07:06.004Z,97433.66
2022-08-14T18:09:36.234Z,97435.16
2022-08-14T18:12:03.677Z,97438.44
2022-08-14T18:14:32.913Z,97437.50
2022-08-14T18:16:59.584Z,97441.88
2022-08-14T18:19:26.982Z,97437.19
2022-08-14T18:21:57.419Z,97435.63
2022-08-14T18:24:29.359Z,97430.34
2022-08-14T18:27:01.622Z,97432.44
2022-08-14T18:29:31.556Z,97439.81
2022-08-14T18:31:58.066Z,97426.97
2022-08-14T18:34:32.365Z,97433.41
2022-08-14T18:37:09.578Z,97432.13
2022-08-14T18:40:03.249Z,97425.38
2022-08-14T18:42:30.361Z,97433.88
2022-08-14T18:44:56.881Z,97429.34
2022-08-14T18:47:23.020Z,97436.53
2022-08-14T18:49:49.326Z,97432.63
2022-08-14T18:52:18.874Z,97444.94
2022-08-14T18:54:48.667Z,97437.78
2022-08-14T18:57:27.051Z,97442.84
2022-08-14T19:00:06.395Z,97439.69
2022-08-14T19:02:36.053Z,97436.78
2022-08-14T19:05:09.412Z,97440.59
2022-08-14T19:07:35.656Z,97445.38
2022-08-14T19:10:01.866Z,97438.94
2022-08-14T19:12:32.168Z,97438.41
2022-08-14T19:15:04.699Z,97442.69
2022-08-14T19:17:50.391Z,97438.81
2022-08-14T19:20:18.182Z,97445.94
2022-08-14T19:22:44.402Z,97443.47
2022-08-14T19:25:10.722Z,97439.47
2022-08-14T19:27:37.800Z,97445.56
2022-08-14T19:30:04.247Z,97439.91
2022-08-14T19:32:30.424Z,97452.22
2022-08-14T19:35:00.005Z,97438.94
2022-08-14T19:37:28.705Z,97438.56
2022-08-14T19:40:15.546Z,97447.34
2022-08-14T19:42:46.639Z,97443.09
2022-08-14T19:45:13.488Z,97444.00
2022-08-14T19:47:41.457Z,97448.53
2022-08-14T19:50:38.655Z,97439.19
2022-08-14T19:52:54.012Z,97438.84
2022-08-14T19:55:20.238Z,97436.91
2022-08-14T19:57:52.387Z,97439.84
2022-08-14T20:00:28.616Z,97442.16
2022-08-14T20:02:57.718Z,97439.72
2022-08-14T20:05:27.135Z,97439.91
2022-08-14T20:08:05.943Z,97445.03
2022-08-14T20:11:05.841Z,97446.06
2022-08-14T20:13:23.461Z,97436.47
2022-08-14T20:15:50.118Z,97439.47
2022-08-14T20:18:32.916Z,97451.47
2022-08-14T20:21:02.474Z,97450.22
2022-08-14T20:23:37.975Z,97446.09
2022-08-14T20:26:05.356Z,97437.78
2022-08-14T20:28:36.750Z,97441.38
2022-08-14T20:31:17.880Z,97435.28
2022-08-14T20:33:47.962Z,97439.03
2022-08-14T20:36:14.401Z,97437.25
2022-08-14T20:38:40.628Z,97443.75
2022-08-14T20:41:16.619Z,97434.44
2022-08-14T20:43:44.464Z,97448.25
2022-08-14T20:46:10.730Z,97447.72
2022-08-14T20:48:52.626Z,97440.41
2022-08-14T20:51:19.810Z,97450.31
2022-08-14T20:53:50.200Z,97447.38
2022-08-14T20:56:29.791Z,97446.56
2022-08-14T20:58:56.794Z,97445.06
2022-08-14T21:01:22.996Z,97450.69
2022-08-14T21:03:56.520Z,97442.16
2022-08-14T21:06:23.694Z,97444.28
2022-08-14T21:08:50.961Z,97445.53
2022-08-14T21:11:17.762Z,97445.34
2022-08-14T21:14:20.919Z,97439.03
2022-08-14T21:16:35.692Z,97447.72
2022-08-14T21:19:04.719Z,97451.63
2022-08-14T21:21:40.598Z,97451.56
2022-08-14T21:24:08.136Z,97445.09
2022-08-14T21:26:52.677Z,97437.28
2022-08-14T21:29:20.928Z,97440.50
2022-08-14T21:31:55.589Z,97435.63
2022-08-14T21:34:30.947Z,97434.63
2022-08-14T21:36:58.170Z,97440.06
2022-08-14T21:39:24.434Z,97433.38
2022-08-14T21:41:58.761Z,97436.97
2022-08-14T21:44:25.528Z,97435.94
2022-08-14T21:47:09.573Z,97439.19
2022-08-14T21:49:38.343Z,97426.97
2022-08-14T21:52:51.764Z,97431.25
2022-08-14T21:54:51.309Z,97433.75
2022-08-14T21:57:17.621Z,97433.06
2022-08-14T21:59:43.757Z,97426.66
2022-08-14T22:02:32.616Z,97424.75
2022-08-14T22:04:57.614Z,97416.88
2022-08-14T22:07:29.142Z,97420.41
2022-08-14T22:09:55.908Z,97418.31
2022-08-14T22:12:57.596Z,97413.78
2022-08-14T22:15:08.289Z,97408.34
2022-08-14T22:17:35.367Z,97410.63
2022-08-14T22:20:01.505Z,97412.66
2022-08-14T22:22:31.189Z,97405.84
2022-08-14T22:24:59.941Z,97402.84
2022-08-14T22:27:26.773Z,97400.06
2022-08-14T22:29:54.719Z,97395.66
2022-08-14T22:32:30.183Z,97398.00
2022-08-14T22:35:10.674Z,97393.16
2022-08-14T22:37:37.882Z,97392.16
2022-08-14T22:40:51.078Z,97391.75
2022-08-14T22:43:00.200Z,97387.00
2022-08-14T22:45:27.124Z,97383.94
2022-08-14T22:48:02.895Z,97382.28
2022-08-14T22:50:33.594Z,97384.38
2022-08-14T22:53:00.085Z,97383.34
2022-08-14T22:55:26.616Z,97385.44
2022-08-14T22:57:52.756Z,97375.72
2022-08-14T23:00:19.539Z,97383.84
2022-08-14T23:02:45.776Z,97384.06
2022-08-14T23:05:11.960Z,97374.47
2022-08-14T23:08:56.851Z,97375.78
2022-08-14T23:10:33.480Z,97377.53
2022-08-14T23:13:00.800Z,97374.97
2022-08-14T23:15:29.860Z,97369.91
2022-08-14T23:17:56.424Z,97367.94
2022-08-14T23:20:22.572Z,97371.59
2022-08-14T23:22:49.027Z,97373.94
2022-08-14T23:25:17.729Z,97371.88
2022-08-14T23:28:04.058Z,97364.31
2022-08-14T23:30:34.533Z,97357.81
2022-08-14T23:33:01.752Z,97363.81
2022-08-14T23:35:27.985Z,97362.88
2022-08-14T23:37:54.167Z,97358.97
2022-08-14T23:40:29.675Z,97351.41
2022-08-14T23:42:56.492Z,97344.25
2022-08-14T23:45:27.360Z,97348.13
2022-08-14T23:48:03.764Z,97353.31
2022-08-14T23:50:38.119Z,97342.75
2022-08-14T23:53:07.420Z,97346.50
2022-08-14T23:55:34.124Z,97340.28
2022-08-14T23:58:00.676Z,97346.63
